.
WxDataArchive / Data Records for 2013-01-09
2013-01-08 January 2013 2013-01-10

Data Records for Wednesday, 09 January 2013

Time	Temp	Chill	HIndex	Humid	Dewpt	 Wind 	HiWind	WindDir	Rain 	Barom 
-----	----	-----	------	-----	-----	------	------	-------	-----	----- 
00:00	28.8	28.8	28.8	83	24.3	0	0	---	0.00	30.187 
00:05	28.7	28.7	28.7	84	24.5	0	0	---	0.00	30.187 
00:10	28.8	28.8	28.8	84	24.6	0	0	---	0.00	30.187 
00:15	29.1	29.1	29.1	84	24.9	0	0	---	0.00	30.172 
00:20	29.4	29.4	29.4	85	25.5	0	1	248	0.00	30.172 
00:25	29.8	29.8	29.8	84	25.6	0	2	248	0.00	30.172 
00:30	30.3	30.3	30.3	84	26.1	0	0	---	0.00	30.166 
00:35	30.6	30.6	30.6	83	26.1	0	0	---	0.00	30.166 
00:40	30.9	30.9	30.9	83	26.4	0	1	248	0.00	30.166 
00:45	31.3	31.3	31.3	82	26.5	0	2	248	0.00	30.149 
00:50	31.9	31.9	31.9	81	26.7	1	2	202	0.00	30.149 
00:55	32.4	32.4	32.4	81	27.2	0	1	202	0.00	30.149 
01:00	32.7	32.7	32.7	80	27.2	0	1	202	0.00	30.140 
01:05	32.7	32.7	32.7	80	27.2	0	2	202	0.00	30.140 
01:10	32.8	32.8	32.8	80	27.3	0	1	202	0.00	30.140 
01:15	33.1	33.1	33.1	80	27.6	0	2	202	0.00	30.135 
01:20	33.5	33.5	33.5	80	28.0	0	2	202	0.00	30.135 
01:25	33.8	33.8	33.8	79	28.0	0	2	202	0.00	30.135 
01:30	34.0	34.0	34.0	79	28.2	0	2	202	0.00	30.134 
01:35	34.0	34.0	34.0	78	27.9	0	1	202	0.00	30.134 
01:40	33.8	33.8	33.8	78	27.7	0	1	202	0.00	30.134 
01:45	33.8	33.8	33.8	78	27.7	0	1	202	0.00	30.127 
01:50	33.8	33.8	33.8	78	27.7	0	1	202	0.00	30.127 
01:55	33.7	33.7	33.7	79	27.9	0	2	202	0.00	30.127 
02:00	33.7	33.7	33.7	79	27.9	0	2	202	0.00	30.127 
02:05	33.7	33.7	33.7	79	27.9	0	2	202	0.00	30.127 
02:10	33.7	33.7	33.7	79	27.9	0	2	202	0.00	30.127 
02:15	33.8	33.8	33.8	79	28.0	0	2	112	0.00	30.128 
02:20	33.8	33.8	33.8	79	28.0	0	2	180	0.00	30.128 
02:25	34.0	34.0	34.0	79	28.2	0	2	180	0.00	30.128 
02:30	34.1	34.1	34.1	79	28.3	0	2	90	0.00	30.126 
02:35	34.4	34.4	34.4	80	28.9	0	2	90	0.00	30.126 
02:40	34.7	34.7	34.7	80	29.2	0	4	90	0.00	30.126 
02:45	35.0	35.0	35.0	79	29.2	0	3	90	0.00	30.131 
02:50	35.2	35.2	35.2	79	29.4	0	2	248	0.00	30.131 
02:55	35.5	35.5	35.5	79	29.6	1	5	248	0.00	30.131 
03:00	35.6	35.6	35.6	78	29.4	0	3	248	0.00	30.124 
03:05	35.8	35.8	35.8	78	29.6	0	2	45	0.00	30.124 
03:10	35.8	35.8	35.8	78	29.6	0	3	270	0.00	30.124 
03:15	35.8	35.8	35.8	77	29.3	0	2	248	0.00	30.126 
03:20	35.8	35.8	35.8	77	29.3	0	2	248	0.00	30.126 
03:25	35.6	35.6	35.6	78	29.4	0	2	248	0.00	30.126 
03:30	35.5	35.5	35.5	78	29.3	0	1	248	0.00	30.123 
03:35	35.5	35.5	35.5	78	29.3	0	2	248	0.00	30.123 
03:40	35.5	35.5	35.5	79	29.6	0	1	248	0.00	30.123 
03:45	35.6	35.6	35.6	79	29.7	0	2	248	0.00	30.114 
03:50	35.6	35.6	35.6	80	30.1	0	1	248	0.00	30.114 
03:55	35.9	35.9	35.9	80	30.3	0	2	248	0.00	30.114 
04:00	36.2	36.2	36.2	80	30.6	0	3	248	0.00	30.111 
04:05	36.5	36.5	36.5	80	30.9	0	3	248	0.00	30.111 
04:10	36.8	36.8	36.8	80	31.2	1	2	248	0.00	30.111 
04:15	37.2	37.2	37.2	79	31.3	1	3	248	0.00	30.116 
04:20	37.8	37.8	37.8	79	31.9	1	3	248	0.00	30.116 
04:25	38.3	38.3	38.3	78	32.1	1	5	248	0.00	30.116 
04:30	38.8	38.8	38.8	77	32.2	1	4	248	0.00	30.108 
04:35	39.1	39.1	39.1	77	32.5	1	4	225	0.00	30.108 
04:40	39.3	39.3	39.3	76	32.4	1	4	248	0.00	30.108 
04:45	39.6	39.6	39.6	75	32.3	1	3	248	0.00	30.104 
04:50	39.8	39.8	39.8	75	32.5	1	4	248	0.00	30.104 
04:55	39.9	39.9	39.9	74	32.3	1	6	248	0.00	30.104 
05:00	40.1	40.1	40.1	74	32.5	2	9	225	0.00	30.107 
05:05	40.3	40.3	40.3	73	32.3	1	3	248	0.01	30.107 
05:10	40.5	40.5	40.5	73	32.5	2	9	248	0.00	30.107 
05:15	40.6	40.6	40.6	73	32.6	2	9	248	0.00	30.109 
05:20	40.9	40.9	40.9	72	32.6	2	6	248	0.00	30.109 
05:25	41.1	41.1	41.1	72	32.8	2	7	248	0.00	30.109 
05:30	41.3	41.3	41.3	71	32.6	3	12	248	0.00	30.121 
05:35	41.5	41.5	41.5	70	32.5	2	10	248	0.00	30.121 
05:40	41.8	41.8	41.8	70	32.7	3	7	248	0.00	30.121 
05:45	41.9	39.5	41.9	69	32.5	4	12	248	0.01	30.122 
05:50	41.9	41.9	41.9	69	32.5	3	7	248	0.00	30.122 
05:55	41.9	41.9	41.9	69	32.5	3	10	248	0.00	30.122 
06:00	41.9	41.9	41.9	69	32.5	2	6	248	0.00	30.122 
06:05	41.9	41.9	41.9	69	32.5	3	9	248	0.00	30.122 
06:10	41.8	41.8	41.8	69	32.4	2	6	248	0.01	30.122 
06:15	41.8	41.8	41.8	69	32.4	2	5	248	0.00	30.114 
06:20	41.6	41.6	41.6	70	32.6	2	5	248	0.00	30.114 
06:25	41.6	41.6	41.6	70	32.6	2	7	225	0.00	30.114 
06:30	41.6	41.6	41.6	70	32.6	2	7	248	0.00	30.113 
06:35	41.6	41.6	41.6	70	32.6	2	5	248	0.00	30.113 
06:40	41.5	41.5	41.5	71	32.8	2	7	225	0.00	30.113 
06:45	41.5	41.5	41.5	71	32.8	2	5	248	0.00	30.124 
06:50	41.5	41.5	41.5	71	32.8	3	7	248	0.00	30.124 
06:55	41.3	41.3	41.3	71	32.6	2	5	248	0.00	30.124 
07:00	41.3	41.3	41.3	72	33.0	3	7	248	0.00	30.132 
07:05	41.5	41.5	41.5	72	33.2	3	9	248	0.00	30.132 
07:10	41.5	41.5	41.5	72	33.2	2	5	248	0.00	30.132 
07:15	41.6	41.6	41.6	72	33.3	3	7	248	0.00	30.138 
07:20	41.8	41.8	41.8	71	33.1	3	11	248	0.00	30.138 
07:25	41.8	41.8	41.8	71	33.1	2	7	248	0.00	30.138 
07:30	41.6	41.6	41.6	72	33.3	2	6	248	0.00	30.140 
07:35	41.6	41.6	41.6	72	33.3	2	9	248	0.00	30.140 
07:40	41.8	39.4	41.8	72	33.4	4	9	248	0.00	30.140 
07:45	41.9	39.5	41.9	71	33.2	4	9	248	0.00	30.157 
07:50	42.1	39.7	42.1	71	33.4	4	10	248	0.00	30.157 
07:55	42.1	42.1	42.1	71	33.4	3	6	248	0.00	30.157 
08:00	41.9	39.5	41.9	71	33.2	4	7	248	0.00	30.168 
08:05	41.9	39.5	41.9	71	33.2	4	10	248	0.00	30.168 
08:10	41.9	39.5	41.9	71	33.2	4	10	248	0.01	30.168 
08:15	41.8	39.4	41.8	71	33.1	4	11	248	0.00	30.175 
08:20	41.8	39.4	41.8	71	33.1	4	12	248	0.00	30.175 
08:25	41.6	38.4	41.6	72	33.3	5	11	248	0.00	30.175 
08:30	41.5	38.2	41.5	72	33.2	5	13	248	0.00	30.188 
08:35	41.3	38.8	41.3	72	33.0	4	7	248	0.00	30.188 
08:40	41.2	38.7	41.2	73	33.2	4	11	248	0.00	30.188 
08:45	41.2	38.7	41.2	73	33.2	4	12	248	0.00	30.192 
08:50	41.2	38.7	41.2	73	33.2	4	10	248	0.00	30.192 
08:55	41.2	38.7	41.2	73	33.2	4	11	248	0.00	30.192 
09:00	41.2	38.7	41.2	72	32.9	4	10	248	0.00	30.205 
09:05	41.3	38.8	41.3	72	33.0	4	9	248	0.00	30.205 
09:10	41.3	38.8	41.3	72	33.0	4	11	248	0.00	30.205 
09:15	41.3	38.8	41.3	72	33.0	4	10	248	0.00	30.208 
09:20	41.3	41.3	41.3	72	33.0	3	11	248	0.00	30.208 
09:25	41.3	38.8	41.3	72	33.0	4	11	248	0.00	30.208 
09:30	41.5	39.1	41.5	71	32.8	4	11	248	0.00	30.217 
09:35	41.5	39.1	41.5	71	32.8	4	12	248	0.00	30.217 
09:40	41.6	39.2	41.6	71	32.9	4	12	248	0.00	30.217 
09:45	41.6	39.2	41.6	70	32.6	4	18	248	0.00	30.225 
09:50	41.6	41.6	41.6	71	32.9	3	9	248	0.00	30.225 
09:55	41.6	41.6	41.6	71	32.9	3	9	248	0.00	30.225 
10:00	41.5	41.5	41.5	70	32.5	3	10	248	0.00	30.229 
10:05	41.6	39.2	41.6	70	32.6	4	11	248	0.00	30.229 
10:10	41.6	41.6	41.6	70	32.6	3	5	248	0.00	30.229 
10:15	41.6	39.2	41.6	70	32.6	4	11	248	0.00	30.242 
10:20	41.6	39.2	41.6	70	32.6	4	9	248	0.00	30.242 
10:25	41.6	41.6	41.6	70	32.6	3	6	270	0.00	30.242 
10:30	41.6	41.6	41.6	70	32.6	3	5	248	0.00	30.252 
10:35	41.6	41.6	41.6	69	32.2	3	7	248	0.00	30.252 
10:40	41.6	41.6	41.6	69	32.2	3	7	248	0.00	30.252 
10:45	41.6	41.6	41.6	69	32.2	3	9	248	0.00	30.253 
10:50	41.6	39.2	41.6	69	32.2	4	7	248	0.00	30.253 
10:55	41.6	41.6	41.6	69	32.2	3	9	270	0.00	30.253 
11:00	41.6	39.2	41.6	68	31.8	4	7	270	0.00	30.253 
11:05	41.6	41.6	41.6	69	32.2	3	8	248	0.00	30.253 
11:10	41.8	41.8	41.8	69	32.4	2	5	248	0.00	30.253 
11:15	41.9	41.9	41.9	68	32.1	3	6	270	0.00	30.266 
11:20	41.9	41.9	41.9	68	32.1	3	7	248	0.00	30.266 
11:25	41.9	39.5	41.9	67	31.8	4	7	270	0.00	30.266 
11:30	41.8	39.4	41.8	67	31.7	4	13	270	0.00	30.264 
11:35	41.8	39.4	41.8	67	31.7	4	7	248	0.00	30.264 
11:40	41.8	39.4	41.8	67	31.7	4	11	248	0.00	30.264 
11:45	41.9	41.9	41.9	67	31.8	3	9	248	0.00	30.254 
11:50	42.2	42.2	42.2	67	32.0	2	5	248	0.00	30.254 
11:55	42.3	42.3	42.3	66	31.8	3	5	248	0.00	30.254 
12:00	42.3	40.0	42.3	65	31.4	4	10	270	0.00	30.255 
12:05	42.5	42.5	42.5	64	31.2	3	9	248	0.00	30.255 
12:10	42.5	40.2	42.5	64	31.2	4	11	248	0.00	30.255 
12:15	42.6	42.6	42.6	63	30.9	3	10	248	0.00	30.245 
12:20	42.9	42.9	42.9	64	31.6	3	6	248	0.00	30.245 
12:25	43.1	43.1	43.1	63	31.4	3	5	248	0.00	30.245 
12:30	43.2	43.2	43.2	63	31.5	2	5	248	0.00	30.248 
12:35	43.3	43.3	43.3	63	31.6	2	5	248	0.00	30.248 
12:40	43.3	43.3	43.3	62	31.2	3	10	248	0.00	30.248 
12:45	43.2	41.0	43.2	62	31.1	4	7	248	0.00	30.239 
12:50	43.1	43.1	43.1	63	31.4	3	6	248	0.00	30.239 
12:55	43.1	43.1	43.1	63	31.4	3	8	248	0.00	30.239 
13:00	43.1	43.1	43.1	64	31.8	2	6	248	0.00	30.239 
13:05	43.1	43.1	43.1	63	31.4	3	12	248	0.00	30.239 
13:10	43.2	43.2	43.2	63	31.5	3	7	248	0.00	30.239 
13:15	43.2	43.2	43.2	62	31.1	3	6	248	0.00	30.240 
13:20	43.1	43.1	43.1	63	31.4	3	6	248	0.00	30.240 
13:25	43.1	43.1	43.1	63	31.4	2	5	248	0.00	30.240 
13:30	43.2	43.2	43.2	63	31.5	2	5	248	0.00	30.247 
13:35	43.3	43.3	43.3	62	31.2	3	7	270	0.00	30.247 
13:40	43.5	41.4	43.5	62	31.4	4	7	270	0.00	30.247 
13:45	43.6	43.6	43.6	62	31.5	3	6	270	0.00	30.258 
13:50	43.9	43.9	43.9	62	31.7	2	5	248	0.00	30.258 
13:55	44.1	44.1	44.1	62	31.9	2	5	248	0.00	30.258 
14:00	43.9	41.8	43.9	61	31.3	4	10	248	0.00	30.263 
14:05	43.9	43.9	43.9	62	31.7	2	4	248	0.00	30.263 
14:10	43.9	43.9	43.9	61	31.3	3	10	248	0.00	30.263 
14:15	43.9	43.9	43.9	62	31.7	3	7	248	0.00	30.269 
14:20	43.8	43.8	43.8	62	31.6	3	9	248	0.00	30.269 
14:25	43.9	43.9	43.9	62	31.7	3	10	248	0.00	30.269 
14:30	44.1	44.1	44.1	62	31.9	2	5	248	0.00	30.275 
14:35	43.9	43.9	43.9	62	31.7	3	5	248	0.00	30.275 
14:40	43.9	43.9	43.9	62	31.7	2	5	248	0.00	30.275 
14:45	44.1	44.1	44.1	62	31.9	2	5	248	0.00	30.286 
14:50	43.9	43.9	43.9	62	31.7	2	5	248	0.00	30.286 
14:55	44.1	44.1	44.1	62	31.9	2	5	248	0.00	30.286 
15:00	43.9	43.9	43.9	62	31.7	3	7	248	0.00	30.291 
15:05	43.8	43.8	43.8	62	31.6	2	6	248	0.00	30.291 
15:10	43.9	43.9	43.9	62	31.7	3	9	248	0.00	30.291 
15:15	44.1	44.1	44.1	63	32.3	2	5	248	0.00	30.292 
15:20	44.1	44.1	44.1	62	31.9	3	7	248	0.00	30.292 
15:25	44.1	44.1	44.1	62	31.9	2	5	248	0.00	30.292 
15:30	44.1	44.1	44.1	62	31.9	3	6	248	0.00	30.300 
15:35	44.2	44.2	44.2	61	31.6	2	6	248	0.00	30.300 
15:40	44.2	44.2	44.2	61	31.6	3	5	248	0.00	30.300 
15:45	44.2	44.2	44.2	61	31.6	2	6	248	0.00	30.307 
15:50	44.3	44.3	44.3	61	31.7	2	6	248	0.00	30.307 
15:55	44.2	44.2	44.2	61	31.6	3	5	248	0.00	30.307 
16:00	44.1	44.1	44.1	61	31.5	3	9	248	0.00	30.313 
16:05	43.9	43.9	43.9	61	31.3	3	6	248	0.00	30.313 
16:10	43.8	43.8	43.8	62	31.6	3	6	248	0.00	30.313 
16:15	43.6	43.6	43.6	62	31.5	2	5	248	0.00	30.308 
16:20	43.5	43.5	43.5	62	31.4	3	6	248	0.00	30.308 
16:25	43.3	43.3	43.3	63	31.6	2	5	248	0.00	30.308 
16:30	43.2	43.2	43.2	63	31.5	2	6	270	0.00	30.315 
16:35	43.2	43.2	43.2	64	31.9	2	5	248	0.00	30.315 
16:40	42.9	42.9	42.9	64	31.6	2	4	248	0.00	30.315 
16:45	42.8	42.8	42.8	65	31.9	3	6	248	0.00	30.323 
16:50	42.6	42.6	42.6	65	31.7	2	5	248	0.00	30.323 
16:55	42.5	42.5	42.5	65	31.6	2	5	270	0.00	30.323 
17:00	42.2	42.2	42.2	66	31.7	2	5	248	0.00	30.326 
17:05	41.9	41.9	41.9	67	31.8	1	3	248	0.00	30.326 
17:10	41.6	41.6	41.6	68	31.8	1	3	248	0.00	30.326 
17:15	41.3	41.3	41.3	69	31.9	1	5	248	0.00	30.330 
17:20	41.2	41.2	41.2	69	31.8	1	3	248	0.00	30.330 
17:25	40.9	40.9	40.9	70	31.9	1	3	248	0.00	30.330 
17:30	40.6	40.6	40.6	71	31.9	2	4	248	0.00	30.338 
17:35	40.5	40.5	40.5	71	31.8	1	3	248	0.00	30.338 
17:40	40.3	40.3	40.3	72	32.0	1	4	248	0.00	30.338 
17:45	40.1	40.1	40.1	73	32.2	1	2	248	0.00	30.340 
17:50	39.9	39.9	39.9	73	32.0	1	3	248	0.00	30.340 
17:55	39.8	39.8	39.8	74	32.2	1	2	248	0.00	30.340 
18:00	39.6	39.6	39.6	74	32.0	1	3	248	0.00	30.350 
18:05	39.5	39.5	39.5	75	32.2	1	3	248	0.00	30.350 
18:10	39.3	39.3	39.3	75	32.0	0	3	248	0.00	30.350 
18:15	39.2	39.2	39.2	76	32.3	1	3	248	0.00	30.362 
18:20	39.1	39.1	39.1	76	32.2	0	2	248	0.00	30.362 
18:25	38.9	38.9	38.9	77	32.3	0	2	248	0.00	30.362 
18:30	38.9	38.9	38.9	77	32.3	1	4	248	0.00	30.370 
18:35	38.8	38.8	38.8	77	32.2	0	2	248	0.00	30.370 
18:40	38.6	38.6	38.6	77	32.0	1	3	248	0.00	30.370 
18:45	38.6	38.6	38.6	77	32.0	1	2	248	0.00	30.378 
18:50	38.5	38.5	38.5	78	32.2	1	3	248	0.00	30.378 
18:55	38.3	38.3	38.3	78	32.1	1	3	248	0.00	30.378 
19:00	38.2	38.2	38.2	79	32.3	0	3	248	0.00	30.388 
19:05	38.0	38.0	38.0	79	32.1	1	2	248	0.00	30.388 
19:10	37.9	37.9	37.9	79	32.0	1	3	248	0.00	30.388 
19:15	37.9	37.9	37.9	80	32.3	1	4	248	0.00	30.392 
19:20	37.8	37.8	37.8	80	32.2	1	3	248	0.00	30.392 
19:25	37.6	37.6	37.6	80	32.0	0	2	248	0.00	30.392 
19:30	37.6	37.6	37.6	81	32.3	1	3	248	0.00	30.392 
19:35	37.5	37.5	37.5	81	32.2	1	3	248	0.00	30.392 
19:40	37.5	37.5	37.5	81	32.2	0	2	248	0.00	30.392 
19:45	37.3	37.3	37.3	81	32.0	0	2	248	0.00	30.395 
19:50	37.3	37.3	37.3	81	32.0	0	3	248	0.00	30.395 
19:55	37.2	37.2	37.2	80	31.6	0	1	248	0.00	30.395 
20:00	37.0	37.0	37.0	81	31.7	1	3	248	0.00	30.400 
20:05	36.9	36.9	36.9	81	31.6	0	1	248	0.00	30.400 
20:10	36.8	36.8	36.8	81	31.5	0	2	248	0.00	30.400 
20:15	36.6	36.6	36.6	81	31.3	0	1	248	0.00	30.403 
20:20	36.5	36.5	36.5	81	31.2	0	2	248	0.00	30.403 
20:25	36.3	36.3	36.3	81	31.0	0	2	248	0.00	30.403 
20:30	36.2	36.2	36.2	81	30.9	0	1	248	0.00	30.407 
20:35	36.0	36.0	36.0	81	30.7	0	1	248	0.00	30.407 
20:40	35.9	35.9	35.9	80	30.3	0	1	248	0.00	30.407 
20:45	35.8	35.8	35.8	80	30.2	0	1	248	0.00	30.414 
20:50	35.6	35.6	35.6	80	30.1	0	1	248	0.00	30.414 
20:55	35.6	35.6	35.6	80	30.1	0	1	248	0.00	30.414 
21:00	35.5	35.5	35.5	79	29.6	0	1	248	0.00	30.422 
21:05	35.3	35.3	35.3	79	29.4	0	0	---	0.00	30.422 
21:10	35.3	35.3	35.3	79	29.4	0	1	248	0.00	30.422 
21:15	35.3	35.3	35.3	79	29.4	0	1	248	0.00	30.422 
21:20	35.2	35.2	35.2	78	29.0	0	0	---	0.00	30.422 
21:25	35.0	35.0	35.0	78	28.8	0	1	248	0.00	30.422 
21:30	34.7	34.7	34.7	78	28.6	0	0	---	0.00	30.437 
21:35	34.4	34.4	34.4	78	28.3	0	1	248	0.00	30.437 
21:40	34.1	34.1	34.1	79	28.3	0	1	248	0.00	30.437 
21:45	34.0	34.0	34.0	79	28.2	0	0	---	0.00	30.442 
21:50	33.8	33.8	33.8	79	28.0	0	0	---	0.00	30.442 
21:55	33.5	33.5	33.5	79	27.7	0	0	---	0.00	30.442 
22:00	33.4	33.4	33.4	80	27.9	0	0	---	0.00	30.448 
22:05	33.2	33.2	33.2	80	27.7	0	0	---	0.00	30.448 
22:10	33.1	33.1	33.1	80	27.6	0	0	---	0.00	30.448 
22:15	32.7	32.7	32.7	79	26.9	0	0	---	0.00	30.453 
22:20	32.2	32.2	32.2	80	26.7	0	0	---	0.00	30.453 
22:25	31.9	31.9	31.9	80	26.4	0	0	---	0.00	30.453 
22:30	31.5	31.5	31.5	80	26.1	0	0	---	0.00	30.455 
22:35	31.2	31.2	31.2	80	25.8	0	0	---	0.00	30.455 
22:40	30.7	30.7	30.7	81	25.6	0	0	---	0.00	30.455 
22:45	30.4	30.4	30.4	81	25.3	0	0	---	0.00	30.458 
22:50	30.0	30.0	30.0	81	24.9	0	0	---	0.00	30.458 
22:55	29.7	29.7	29.7	82	24.9	0	0	---	0.00	30.458 
23:00	29.4	29.4	29.4	82	24.6	0	0	---	0.00	30.476 
23:05	29.1	29.1	29.1	83	24.6	0	0	---	0.00	30.476 
23:10	29.0	29.0	29.0	83	24.5	0	0	---	0.00	30.476 
23:15	28.7	28.7	28.7	83	24.2	0	0	---	0.00	30.491 
23:20	28.5	28.5	28.5	84	24.3	0	0	---	0.00	30.491 
23:25	28.5	28.5	28.5	84	24.3	0	0	---	0.00	30.491 
23:30	28.4	28.4	28.4	85	24.5	0	0	---	0.00	30.497 
23:35	28.2	28.2	28.2	85	24.3	0	0	---	0.00	30.497 
23:40	28.2	28.2	28.2	85	24.3	0	0	---	0.00	30.497 
23:45	28.1	28.1	28.1	85	24.2	0	0	---	0.00	30.508 
23:50	28.1	28.1	28.1	86	24.5	0	0	---	0.00	30.508 
23:55	28.2	28.2	28.2	86	24.6	0	0	---	0.00	30.508 

CoCoRaHS
IN-AL-39
A2 Web Hosting
Creative Commons License
GoDaddy
search engine by freefind advanced

loaded 2018-11-14 00:37:44 • last modified 2010-11-18 10:43:29
Privacy PolicyDisclaimer
• wx.awcolley.com is powered by PmWiki v.2002016 •
• all content (unless otherwise noted) © 2018 A W Colley